createdAt,value
2022-12-18T00:00:14.814Z,1030.28
2022-12-18T00:16:03.434Z,1030.45
2022-12-18T00:31:03.505Z,1030.55
2022-12-18T00:46:03.610Z,1030.65
2022-12-18T01:00:03.407Z,1030.68
2022-12-18T01:16:03.516Z,1030.85
2022-12-18T01:31:03.414Z,1031.09
2022-12-18T01:46:03.589Z,1031.19
2022-12-18T02:00:03.755Z,1031.33
2022-12-18T02:16:03.440Z,1031.43
2022-12-18T02:31:03.612Z,1031.6
2022-12-18T02:46:05.786Z,1031.8
2022-12-18T03:00:03.524Z,1031.8
2022-12-18T03:16:03.495Z,1031.9
2022-12-18T03:31:03.469Z,1032.17
2022-12-18T03:46:03.578Z,1032.14
2022-12-18T04:00:03.562Z,1032.34
2022-12-18T04:16:03.463Z,1032.51
2022-12-18T04:31:03.526Z,1032.61
2022-12-18T04:46:03.462Z,1032.72
2022-12-18T05:00:03.468Z,1032.99
2022-12-18T05:16:04.257Z,1032.99
2022-12-18T05:31:03.542Z,1033.16
2022-12-18T05:46:03.575Z,1033.19
2022-12-18T06:00:03.558Z,1033.33
2022-12-18T06:16:03.529Z,1033.53
2022-12-18T06:31:03.529Z,1033.6
2022-12-18T06:46:03.506Z,1033.83
2022-12-18T07:00:03.533Z,1033.9
2022-12-18T07:16:03.587Z,1034.24
2022-12-18T07:31:03.478Z,1034.44
2022-12-18T07:46:04.568Z,1034.61
2022-12-18T08:00:03.521Z,1034.82
2022-12-18T08:16:03.589Z,1034.88
2022-12-18T08:31:03.614Z,1035.05
2022-12-18T08:46:03.559Z,1035.22
2022-12-18T09:00:03.511Z,1035.15
2022-12-18T09:16:03.566Z,1035.32
2022-12-18T09:31:03.569Z,1035.43
2022-12-18T09:46:03.676Z,1035.29
2022-12-18T10:00:03.528Z,1035.19
2022-12-18T10:16:03.729Z,1035.15
2022-12-18T10:31:03.573Z,1035.02
2022-12-18T10:46:03.867Z,1035.05
2022-12-18T11:00:05.694Z,1034.88
2022-12-18T11:16:03.656Z,1034.78
2022-12-18T11:31:03.975Z,1034.82
2022-12-18T11:46:03.715Z,1034.82
2022-12-18T12:00:03.545Z,1034.68
2022-12-18T12:16:03.627Z,1034.58
2022-12-18T12:31:03.412Z,1034.48
2022-12-18T12:46:03.481Z,1034.38
2022-12-18T13:00:03.593Z,1034.55
2022-12-18T13:16:03.657Z,1034.58
2022-12-18T13:31:03.428Z,1034.65
2022-12-18T13:46:03.648Z,1034.71
2022-12-18T14:00:03.645Z,1034.65
2022-12-18T14:16:04.039Z,1034.65
2022-12-18T14:31:03.694Z,1034.85
2022-12-18T14:46:03.554Z,1035.09
2022-12-18T15:00:03.641Z,1035.05
2022-12-18T15:16:03.492Z,1035.12
2022-12-18T15:31:03.537Z,1035.26
2022-12-18T15:46:03.547Z,1035.46
2022-12-18T16:00:03.509Z,1035.43
2022-12-18T16:16:03.508Z,1035.7
2022-12-18T16:31:03.512Z,1035.83
2022-12-18T16:46:03.475Z,1035.73
2022-12-18T17:00:05.801Z,1035.73
2022-12-18T17:16:03.553Z,1035.83
2022-12-18T17:31:05.060Z,1035.93
2022-12-18T17:46:03.784Z,1036.04
2022-12-18T18:00:03.617Z,1036.14
2022-12-18T18:16:03.531Z,1036.17
2022-12-18T18:31:03.715Z,1036.34
2022-12-18T18:46:02.650Z,1036.41
2022-12-18T19:00:03.593Z,1036.51
2022-12-18T19:16:03.557Z,1036.61
2022-12-18T19:31:03.457Z,1036.64
2022-12-18T19:46:03.568Z,1036.71
2022-12-18T20:00:03.660Z,1036.68
2022-12-18T20:16:03.473Z,1036.92
2022-12-18T20:31:03.469Z,1036.88
2022-12-18T20:46:03.530Z,1036.88
2022-12-18T21:00:03.464Z,1036.68
2022-12-18T21:16:03.429Z,1036.71
2022-12-18T21:31:03.558Z,1036.75
2022-12-18T21:46:03.552Z,1036.75
2022-12-18T22:00:03.493Z,1036.88
2022-12-18T22:16:03.612Z,1036.95
2022-12-18T22:31:03.513Z,1036.85
2022-12-18T22:46:04.494Z,1036.68
2022-12-18T23:00:03.511Z,1036.78
2022-12-18T23:16:03.696Z,1036.68
2022-12-18T23:31:06.455Z,1036.54
2022-12-18T23:46:03.750Z,1036.44
